Time;durP1;ratioP1;P1;durP2;ratioP2;P2;SDS_P1;SDS_P2;PMS_P1;PMS_P2;Temp;Humidity;BMP_temperature;BMP_pressure;BME280_temperature;BME280_humidity;BME280_pressure;Samples;Min_cycle;Max_cycle;Signal;HPM_P1;HPM_P2
2022/11/01 00:25:59;;;;;;;8.60;5.55;;;;;;;2.42;57.45;100790.17;1815931;78;21381;-70
2022/11/01 00:28:27;;;;;;;11.78;6.33;;;;;;;2.36;57.59;100779.97;1820275;78;21080;-69
2022/11/01 00:30:55;;;;;;;11.38;6.60;;;;;;;2.32;57.72;100780.98;1820204;78;22625;-69
2022/11/01 00:33:23;;;;;;;14.83;5.85;;;;;;;2.28;57.79;100778.50;1820208;78;21056;-69
2022/11/01 00:35:49;;;;;;;11.90;6.78;;;;;;;2.26;57.97;100778.17;1820017;78;21017;-69
2022/11/01 00:38:16;;;;;;;11.05;6.75;;;;;;;2.24;58.04;100779.55;1820162;78;21449;-69
2022/11/01 00:40:43;;;;;;;13.13;6.80;;;;;;;2.25;58.11;100785.60;1820318;78;21053;-69
2022/11/01 00:43:10;;;;;;;11.35;6.53;;;;;;;2.24;58.20;100790.42;1820152;78;21902;-69
2022/11/01 00:45:37;;;;;;;11.93;6.72;;;;;;;2.21;58.24;100786.61;1820297;78;20981;-69
2022/11/01 00:48:04;;;;;;;12.37;6.47;;;;;;;2.21;58.34;100788.77;1820320;78;21491;-70
2022/11/01 00:50:31;;;;;;;9.68;5.62;;;;;;;2.20;58.29;100786.22;1820156;78;20937;-69
2022/11/01 00:52:57;;;;;;;10.30;5.37;;;;;;;2.21;58.33;100780.94;1820636;78;20961;-69
2022/11/01 00:55:24;;;;;;;8.93;5.15;;;;;;;2.22;58.32;100783.97;1820195;78;21830;-69
2022/11/01 00:57:50;;;;;;;10.85;5.08;;;;;;;2.22;58.38;100786.58;1820224;78;20918;-69
2022/11/01 01:00:17;;;;;;;8.50;4.50;;;;;;;2.24;58.43;100789.13;1820219;78;21424;-69
2022/11/01 01:02:45;;;;;;;13.22;5.28;;;;;;;2.25;58.41;100784.30;1820303;78;20985;-69
2022/11/01 01:05:11;;;;;;;9.05;5.05;;;;;;;2.25;58.39;100783.84;1820083;78;21515;-69
2022/11/01 01:07:38;;;;;;;9.98;5.00;;;;;;;2.30;58.38;100784.50;1820237;78;21969;-70
2022/11/01 01:10:07;;;;;;;8.93;4.35;;;;;;;2.35;58.34;100782.19;1820120;78;21447;-69
2022/11/01 01:12:35;;;;;;;8.48;4.50;;;;;;;2.37;58.28;100782.52;1820300;78;21056;-69
2022/11/01 01:15:03;;;;;;;8.65;4.70;;;;;;;2.39;58.23;100792.42;1820285;78;21004;-69
2022/11/01 01:17:31;;;;;;;8.00;4.53;;;;;;;2.41;58.26;100790.59;1820182;78;20957;-69
2022/11/01 01:19:57;;;;;;;7.87;4.30;;;;;;;2.44;58.32;100789.65;1820126;78;22387;-70
2022/11/01 01:22:24;;;;;;;8.93;5.15;;;;;;;2.49;58.28;100789.00;1820047;78;21432;-69
2022/11/01 01:24:50;;;;;;;11.97;5.20;;;;;;;2.52;58.26;100794.96;1816677;78;21015;-69
2022/11/01 01:27:17;;;;;;;7.90;4.72;;;;;;;2.55;58.29;100788.31;1813043;79;20944;-69
2022/11/01 01:29:44;;;;;;;9.30;5.03;;;;;;;2.59;58.23;100790.33;1812998;79;20978;-69
2022/11/01 01:32:17;;;;;;;8.95;4.28;;;;;;;2.60;58.19;100790.72;1812838;79;22814;-70
2022/11/01 01:34:43;;;;;;;7.75;4.30;;;;;;;2.61;58.18;100784.62;1770518;81;21095;-70
2022/11/01 01:37:10;;;;;;;10.20;4.58;;;;;;;2.62;58.20;100786.32;1770194;81;21038;-69
2022/11/01 01:39:37;;;;;;;7.65;4.47;;;;;;;2.63;58.18;100785.86;1770576;81;21006;-70
2022/11/01 01:42:21;;;;;;;8.68;5.00;;;;;;;2.66;58.18;100794.86;1770385;80;21480;-69
2022/11/01 01:44:59;;;;;;;9.85;4.42;;;;;;;2.66;58.24;100792.25;1768884;81;22575;-69
2022/11/01 01:47:36;;;;;;;10.28;4.92;;;;;;;2.66;58.27;100783.97;1770456;81;20994;-71
2022/11/01 01:50:22;;;;;;;9.03;4.25;;;;;;;2.65;58.27;100778.82;1770291;81;21018;-69
2022/11/01 01:53:15;;;;;;;9.05;4.65;;;;;;;2.64;58.30;100772.76;1738633;82;20963;-70
2022/11/01 01:56:04;;;;;;;9.43;4.35;;;;;;;2.61;58.29;100778.10;1723885;82;21566;-69
2022/11/01 01:58:39;;;;;;;8.03;4.60;;;;;;;2.58;58.27;100777.75;1743588;82;22049;-69
2022/11/01 02:01:06;;;;;;;7.03;4.20;;;;;;;2.58;58.34;100788.64;1743566;82;21024;-69
2022/11/01 02:03:33;;;;;;;9.75;4.22;;;;;;;2.58;58.39;100785.57;1743621;82;21044;-69
2022/11/01 02:06:16;;;;;;;7.78;4.70;;;;;;;2.57;58.47;100783.03;1743529;82;20965;-69
2022/11/01 02:08:48;;;;;;;10.25;4.90;;;;;;;2.57;58.60;100784.33;1714101;83;21506;-69
2022/11/01 02:11:16;;;;;;;9.40;4.42;;;;;;;2.57;58.66;100779.97;1739969;82;21030;-69
2022/11/01 02:13:44;;;;;;;8.65;4.58;;;;;;;2.61;58.68;100783.78;1708778;84;20998;-69
2022/11/01 02:16:53;;;;;;;8.75;4.70;;;;;;;2.62;58.69;100787.62;1708871;84;21010;-69
2022/11/01 02:19:38;;;;;;;9.03;4.40;;;;;;;2.61;58.62;100788.53;1704582;84;21005;-69
2022/11/01 02:22:43;;;;;;;6.80;4.08;;;;;;;2.61;58.74;100788.99;1718885;83;21051;-69
2022/11/01 02:25:30;;;;;;;8.05;4.50;;;;;;;2.62;58.87;100788.92;1741889;82;22280;-69
2022/11/01 02:28:34;;;;;;;6.85;3.42;;;;;;;2.63;58.94;100791.92;1820514;78;21002;-69
2022/11/01 02:31:42;;;;;;;7.80;4.50;;;;;;;2.65;59.08;100795.31;1820394;78;20932;-69
2022/11/01 02:34:17;;;;;;;10.45;4.58;;;;;;;2.63;59.29;100789.31;1820400;78;21406;-69
2022/11/01 02:36:49;;;;;;;7.92;4.35;;;;;;;2.65;59.39;100794.01;1820876;78;20964;-69
2022/11/01 02:39:21;;;;;;;8.43;3.83;;;;;;;2.69;59.49;100799.48;1820654;78;21820;-69
2022/11/01 02:41:56;;;;;;;9.05;4.03;;;;;;;2.72;59.58;100796.77;1820241;78;21028;-69
2022/11/01 02:44:26;;;;;;;7.70;3.98;;;;;;;2.75;59.63;100799.25;1820332;78;21024;-70
2022/11/01 02:47:01;;;;;;;8.70;3.87;;;;;;;2.80;59.68;100802.99;1820698;78;21015;-70
2022/11/01 02:49:38;;;;;;;12.43;4.05;;;;;;;2.82;59.76;100800.70;1820303;78;20952;-70
2022/11/01 02:52:06;;;;;;;7.62;4.95;;;;;;;2.83;59.86;100804.16;1820601;78;22440;-70
2022/11/01 02:54:39;;;;;;;7.55;4.17;;;;;;;2.84;59.86;100804.55;1820604;78;21056;-70
2022/11/01 02:57:31;;;;;;;9.88;4.28;;;;;;;2.86;59.93;100808.78;1819474;78;20989;-71
2022/11/01 03:00:03;;;;;;;8.00;3.90;;;;;;;2.87;60.01;100802.66;1788050;80;20966;-69
2022/11/01 03:02:43;;;;;;;9.35;4.20;;;;;;;2.89;60.03;100806.50;1788147;80;21072;-69
2022/11/01 03:05:35;;;;;;;8.98;4.10;;;;;;;2.90;60.00;100804.77;1756267;80;22480;-69
2022/11/01 03:08:10;;;;;;;8.28;4.47;;;;;;;2.90;59.98;100806.92;1788030;80;21518;-69
2022/11/01 03:11:15;;;;;;;9.13;4.20;;;;;;;2.92;59.95;100810.31;1787941;80;20973;-69
2022/11/01 03:14:08;;;;;;;7.45;4.03;;;;;;;2.90;59.90;100809.53;1787724;80;20954;-69
2022/11/01 03:17:23;;;;;;;8.78;3.58;;;;;;;2.86;60.04;100816.62;1819607;78;21057;-71
2022/11/01 03:19:55;;;;;;;8.18;4.08;;;;;;;2.83;60.21;100815.45;1819878;78;21784;-69
2022/11/01 03:22:42;;;;;;;7.22;4.15;;;;;;;2.80;60.38;100819.49;1819473;78;21099;-69
2022/11/01 03:25:38;;;;;;;7.75;3.80;;;;;;;2.81;60.47;100820.34;1788310;78;20929;-70
2022/11/01 03:27:44;;;;;;;8.40;4.10;;;;;;;2.83;60.47;100823.73;1815575;78;20981;-69
2022/11/01 03:30:12;;;;;;;8.70;4.40;;;;;;;2.81;60.57;100813.36;1820717;78;20941;-69
2022/11/01 03:32:44;;;;;;;11.55;5.95;;;;;;;2.83;60.56;100819.36;1819313;78;22147;-69
2022/11/01 03:35:20;;;;;;;12.43;6.97;;;;;;;2.81;60.60;100818.58;1819963;78;20975;-69
2022/11/01 03:37:48;;;;;;;12.00;6.53;;;;;;;2.81;60.64;100817.27;1820266;78;21459;-70
2022/11/01 03:40:15;;;;;;;10.20;5.50;;;;;;;2.80;60.68;100822.56;1820130;78;21323;-69
2022/11/01 03:42:46;;;;;;;9.65;5.17;;;;;;;2.79;60.71;100819.06;1820289;78;21387;-69
2022/11/01 03:45:12;;;;;;;9.60;5.00;;;;;;;2.78;60.73;100826.50;1820512;78;21748;-69
2022/11/01 03:47:40;;;;;;;9.98;4.53;;;;;;;2.76;60.85;100832.70;1820145;78;21150;-69
2022/11/01 03:50:20;;;;;;;7.67;4.37;;;;;;;2.75;60.89;100834.47;1820404;78;21391;-70
2022/11/01 03:52:48;;;;;;;11.12;4.78;;;;;;;2.75;60.93;100826.64;1820316;78;20985;-69
2022/11/01 03:55:18;;;;;;;8.93;4.40;;;;;;;2.76;60.88;100836.61;1820554;78;20988;-69
2022/11/01 03:57:51;;;;;;;9.55;4.10;;;;;;;2.74;60.82;100835.83;1820192;78;21497;-69
2022/11/01 04:00:25;;;;;;;14.03;5.65;;;;;;;2.70;60.83;100838.15;1820509;78;20958;-69
2022/11/01 04:02:53;;;;;;;12.65;6.87;;;;;;;2.65;60.89;100843.56;1819577;78;21029;-70
2022/11/01 04:05:21;;;;;;;10.18;5.30;;;;;;;2.61;60.97;100840.69;1820432;78;21332;-69
2022/11/01 04:07:50;;;;;;;7.30;4.72;;;;;;;2.57;60.94;100845.61;1820239;78;21051;-69
2022/11/01 04:10:18;;;;;;;9.68;6.17;;;;;;;2.53;60.99;100847.95;1820155;78;22694;-69
2022/11/01 04:12:48;;;;;;;7.83;4.78;;;;;;;2.46;61.18;100841.27;1820301;78;20980;-69
2022/11/01 04:21:11;;;;;;;9.00;5.62;;;;;;;2.39;61.63;100852.84;1820419;78;21470;-70
2022/11/01 04:23:37;;;;;;;8.18;4.72;;;;;;;2.39;61.80;100847.16;1820192;78;22193;-70
2022/11/01 04:26:04;;;;;;;9.33;5.28;;;;;;;2.39;61.81;100852.38;1815216;78;20945;-69
2022/11/01 04:28:31;;;;;;;11.18;5.35;;;;;;;2.37;61.92;100854.20;1804733;79;20989;-70
2022/11/01 04:30:58;;;;;;;6.83;4.22;;;;;;;2.37;62.00;100858.11;1804474;79;20945;-70
2022/11/01 04:33:24;;;;;;;8.40;4.40;;;;;;;2.37;62.10;100857.27;1804551;79;21153;-70
2022/11/01 04:35:51;;;;;;;10.13;4.92;;;;;;;2.35;62.28;100853.41;1804543;79;21932;-69
2022/11/01 04:38:17;;;;;;;7.70;4.72;;;;;;;2.36;62.29;100852.96;1804393;79;20918;-69
2022/11/01 04:40:45;;;;;;;7.60;3.70;;;;;;;2.38;62.27;100845.92;1805667;78;20986;-69
2022/11/01 04:43:12;;;;;;;8.33;4.60;;;;;;;2.36;62.34;100847.30;1806251;79;20951;-70
2022/11/01 04:45:39;;;;;;;10.95;4.37;;;;;;;2.34;62.42;100850.87;1806284;79;20850;-70
2022/11/01 04:48:15;;;;;;;9.63;6.00;;;;;;;2.35;62.44;100851.27;1806185;79;21872;-69
2022/11/01 04:50:44;;;;;;;10.32;5.17;;;;;;;2.33;62.50;100856.54;1806093;79;20998;-70
2022/11/01 04:53:11;;;;;;;9.93;4.50;;;;;;;2.32;62.52;100851.36;1806607;79;20942;-70
2022/11/01 04:55:39;;;;;;;8.18;4.40;;;;;;;2.32;62.57;100851.36;1806120;78;20942;-70
2022/11/01 04:58:05;;;;;;;10.85;4.60;;;;;;;2.29;62.65;100857.09;1806353;79;21466;-70
2022/11/01 05:00:33;;;;;;;8.25;4.25;;;;;;;2.30;62.72;100858.78;1806314;79;21833;-70
2022/11/01 05:03:06;;;;;;;7.17;4.20;;;;;;;2.30;62.74;100857.94;1806220;78;21430;-70
2022/11/01 05:05:33;;;;;;;;;;;;;;;2.28;62.81;100855.39;1808852;79;21033;-71
2022/11/01 05:08:06;;;;;;;8.33;3.95;;;;;;;2.31;62.89;100858.33;1806260;79;20310;-70
2022/11/01 05:10:34;;;;;;;9.83;4.47;;;;;;;2.29;62.97;100855.78;1806772;78;21037;-70
2022/11/01 05:13:02;;;;;;;8.95;4.60;;;;;;;2.30;63.01;100853.58;1806213;79;21260;-70
2022/11/01 05:15:29;;;;;;;11.57;4.35;;;;;;;2.32;63.04;100856.57;1805628;79;21464;-71
2022/11/01 05:17:57;;;;;;;9.15;4.90;;;;;;;2.28;63.03;100861.06;1805175;79;21523;-70
2022/11/01 05:20:24;;;;;;;9.13;5.08;;;;;;;2.21;63.02;100858.28;1806173;79;20991;-70
2022/11/01 05:23:00;;;;;;;11.05;5.87;;;;;;;2.15;63.06;100868.49;1806292;79;21009;-70
2022/11/01 05:25:28;;;;;;;11.93;5.85;;;;;;;2.06;63.06;100874.49;1740450;82;21441;-70
2022/11/01 05:28:06;;;;;;;13.28;7.10;;;;;;;1.98;63.12;100874.77;1718071;83;21000;-70
2022/11/01 05:30:33;;;;;;;17.73;8.10;;;;;;;1.93;63.27;100882.77;1723966;82;21011;-70
2022/11/01 05:33:00;;;;;;;20.57;9.10;;;;;;;1.91;63.35;100875.42;1748655;82;20923;-70
2022/11/01 05:35:28;;;;;;;24.50;11.00;;;;;;;1.90;63.50;100878.94;1748484;81;20956;-70
2022/11/01 05:37:55;;;;;;;19.30;10.68;;;;;;;1.89;63.71;100877.70;1748441;82;21846;-70
2022/11/01 05:40:22;;;;;;;20.12;10.40;;;;;;;1.92;63.82;100881.48;1748293;82;21334;-70
2022/11/01 05:42:49;;;;;;;19.55;10.08;;;;;;;1.95;63.98;100878.34;1748360;82;20932;-70
2022/11/01 05:45:17;;;;;;;19.05;10.23;;;;;;;2.03;64.11;100874.58;1748483;81;21426;-70
2022/11/01 05:47:43;;;;;;;22.82;10.60;;;;;;;2.09;64.24;100871.77;1772682;81;21534;-69
2022/11/01 05:50:13;;;;;;;22.25;10.80;;;;;;;2.16;64.35;100872.80;1772859;81;21714;-70
2022/11/01 05:52:40;;;;;;;20.55;10.45;;;;;;;2.24;64.42;100869.46;1773072;80;20981;-69
2022/11/01 05:55:09;;;;;;;19.48;10.95;;;;;;;2.33;64.48;100874.78;1772773;81;20952;-70
2022/11/01 05:57:37;;;;;;;17.30;10.60;;;;;;;2.42;64.58;100874.45;1772532;80;21016;-70
2022/11/01 06:00:07;;;;;;;19.23;9.75;;;;;;;2.53;64.66;100884.46;1772782;81;20977;-69
2022/11/01 06:02:40;;;;;;;12.07;7.20;;;;;;;2.63;64.71;100879.29;1772791;81;21865;-69
2022/11/01 06:05:08;;;;;;;12.53;7.28;;;;;;;2.76;64.78;100887.48;1772663;80;20993;-69
2022/11/01 06:07:36;;;;;;;11.38;5.72;;;;;;;2.86;64.91;100880.53;1772643;80;21000;-70
2022/11/01 06:10:03;;;;;;;12.73;6.70;;;;;;;3.00;64.96;100885.68;1772821;80;21075;-69
2022/11/01 06:12:32;;;;;;;10.25;4.75;;;;;;;3.11;64.94;100886.94;1772854;80;20945;-70
2022/11/01 06:15:00;;;;;;;9.45;5.22;;;;;;;3.22;64.82;100880.44;1772726;81;21962;-69
2022/11/01 06:17:28;;;;;;;11.25;5.67;;;;;;;3.32;64.71;100885.21;1772633;80;20930;-70
2022/11/01 06:19:54;;;;;;;9.18;5.35;;;;;;;3.45;64.62;100890.30;1725790;80;21475;-69
2022/11/01 06:22:20;;;;;;;9.00;4.90;;;;;;;3.52;64.54;100885.69;1747843;81;21336;-70
2022/11/01 06:24:48;;;;;;;10.32;6.00;;;;;;;3.60;64.41;100890.59;1772767;81;20953;-69
2022/11/01 06:27:15;;;;;;;6.42;4.35;;;;;;;3.69;64.31;100890.20;1772896;81;21747;-69
2022/11/01 06:29:41;;;;;;;8.68;4.08;;;;;;;3.80;64.21;100892.35;1772639;81;20961;-70
2022/11/01 06:32:08;;;;;;;7.85;3.90;;;;;;;3.88;64.08;100888.50;1773031;80;21384;-69
2022/11/01 06:34:35;;;;;;;8.80;3.80;;;;;;;3.98;63.95;100884.56;1772708;81;21039;-70
2022/11/01 06:37:01;;;;;;;7.40;4.12;;;;;;;4.05;63.82;100888.19;1773091;81;20973;-70
2022/11/01 06:39:28;;;;;;;9.45;4.30;;;;;;;4.09;63.78;100885.39;1772583;80;21847;-70
2022/11/01 06:41:55;;;;;;;6.00;3.60;;;;;;;4.18;63.73;100881.52;1772996;81;20981;-69
2022/11/01 06:44:21;;;;;;;10.65;3.77;;;;;;;4.27;63.64;100889.80;1772799;81;20945;-69
2022/11/01 06:46:48;;;;;;;6.85;4.05;;;;;;;4.38;63.60;100884.08;1772693;81;21033;-69
2022/11/01 06:49:14;;;;;;;5.65;3.62;;;;;;;4.47;63.42;100880.20;1772660;81;21376;-71
2022/11/01 06:51:41;;;;;;;7.25;3.33;;;;;;;4.57;63.17;100885.39;1772584;81;21823;-69
2022/11/01 06:54:08;;;;;;;4.83;3.10;;;;;;;4.62;63.03;100884.70;1772799;81;20940;-69
2022/11/01 06:56:34;;;;;;;9.40;5.35;;;;;;;4.67;62.90;100880.58;1773147;81;21024;-69
2022/11/01 06:59:01;;;;;;;8.63;4.80;;;;;;;4.75;62.91;100879.30;1772859;80;20969;-69
2022/11/01 07:01:28;;;;;;;8.28;4.30;;;;;;;4.87;62.88;100883.11;1772797;81;21462;-70
2022/11/01 07:03:55;;;;;;;9.95;4.33;;;;;;;4.98;62.65;100884.74;1751738;80;22266;-69
2022/11/01 07:06:23;;;;;;;8.25;4.42;;;;;;;5.07;62.48;100879.06;1772762;81;21020;-69
2022/11/01 07:08:50;;;;;;;6.83;3.40;;;;;;;5.17;62.39;100888.63;1772635;79;20988;-68
2022/11/01 07:11:16;;;;;;;9.40;4.20;;;;;;;5.25;62.12;100890.87;1773145;80;21028;-68
2022/11/01 07:13:43;;;;;;;10.23;4.87;;;;;;;5.30;61.97;100891.02;1763535;80;21039;-68
2022/11/01 07:16:09;;;;;;;7.78;4.53;;;;;;;5.34;61.80;100883.42;1742228;82;21843;-68
2022/11/01 07:18:36;;;;;;;9.60;4.95;;;;;;;5.40;61.82;100880.94;1753048;81;20973;-69
2022/11/01 07:21:05;;;;;;;9.08;5.72;;;;;;;5.48;61.78;100878.78;1771278;81;21503;-70
2022/11/01 07:23:31;;;;;;;15.38;9.38;;;;;;;5.54;61.47;100886.34;1771128;81;21001;-71
2022/11/01 07:25:58;;;;;;;26.90;14.18;;;;;;;5.60;61.49;100891.30;1759776;80;21111;-69
2022/11/01 07:28:24;;;;;;;13.35;7.85;;;;;;;5.70;61.48;100892.52;1735576;80;22426;-69
2022/11/01 07:30:52;;;;;;;18.42;8.10;;;;;;;5.81;61.47;100884.57;1782086;80;21454;-71
2022/11/01 07:33:19;;;;;;;21.62;9.30;;;;;;;5.91;61.15;100885.35;1820691;78;21107;-71
2022/11/01 07:35:46;;;;;;;18.10;7.87;;;;;;;6.00;60.99;100881.41;1820278;78;21017;-70
2022/11/01 07:38:14;;;;;;;16.52;7.17;;;;;;;6.08;60.82;100879.67;1820335;78;21005;-71
2022/11/01 07:40:41;;;;;;;7.10;3.92;;;;;;;6.15;60.20;100887.14;1820279;78;21932;-70
2022/11/01 07:43:09;;;;;;;8.58;4.20;;;;;;;6.18;59.80;100890.94;1788676;78;20914;-69
2022/11/01 07:45:37;;;;;;;17.07;7.53;;;;;;;6.17;59.47;100887.05;1820163;78;20974;-70
2022/11/01 07:48:09;;;;;;;30.52;12.88;;;;;;;6.16;58.71;100883.59;1820330;78;21037;-69
2022/11/01 07:50:35;;;;;;;21.97;10.80;;;;;;;6.19;58.35;100882.14;1820347;78;21001;-69
2022/11/01 07:53:06;;;;;;;30.10;15.75;;;;;;;6.22;58.14;100872.78;1820220;78;22197;-70
2022/11/01 07:55:34;;;;;;;11.45;6.42;;;;;;;6.28;57.98;100875.09;1820651;78;21491;-70
2022/11/01 07:58:03;;;;;;;11.25;5.60;;;;;;;6.35;57.76;100867.72;1820242;78;20945;-71
2022/11/01 08:00:30;;;;;;;16.07;7.67;;;;;;;6.42;57.68;100870.86;1820170;78;21451;-70
2022/11/01 08:03:10;;;;;;;20.02;11.43;;;;;;;6.49;57.58;100865.67;1820234;78;20985;-70
2022/11/01 08:05:38;;;;;;;15.93;8.25;;;;;;;6.58;57.61;100866.48;1801406;79;20957;-70
2022/11/01 08:08:05;;;;;;;12.95;7.05;;;;;;;6.71;57.66;100855.67;1801371;79;21476;-70
2022/11/01 08:10:33;;;;;;;7.65;4.15;;;;;;;6.83;57.12;100860.23;1816572;78;20946;-70
2022/11/01 08:13:21;;;;;;;8.08;4.33;;;;;;;6.93;56.60;100864.50;1820230;78;21005;-71
2022/11/01 08:15:50;;;;;;;8.08;3.90;;;;;;;7.00;56.18;100871.58;1820182;78;21001;-70
2022/11/01 08:18:20;;;;;;;8.58;4.00;;;;;;;7.02;55.79;100870.55;1820257;78;21917;-70
2022/11/01 08:20:46;;;;;;;5.62;3.40;;;;;;;7.06;55.89;100870.77;1820413;78;20983;-69
2022/11/01 08:23:13;;;;;;;8.23;3.85;;;;;;;7.11;55.88;100872.66;1820185;78;21070;-70
2022/11/01 08:25:40;;;;;;;9.65;4.20;;;;;;;7.16;55.59;100872.41;1820225;78;21431;-70
2022/11/01 08:28:13;;;;;;;9.93;4.95;;;;;;;7.19;55.60;100870.91;1814864;78;21518;-69
2022/11/01 08:30:41;;;;;;;11.55;5.37;;;;;;;7.24;55.61;100870.19;1811817;79;21880;-69
2022/11/01 08:33:07;;;;;;;6.67;3.50;;;;;;;7.38;55.52;100878.58;1811574;79;21019;-69
2022/11/01 08:35:35;;;;;;;8.10;3.90;;;;;;;7.48;55.03;100872.31;1789154;79;21023;-69
2022/11/01 08:38:02;;;;;;;7.00;3.70;;;;;;;7.52;54.73;100873.81;1811638;79;21518;-69
2022/11/01 08:40:30;;;;;;;8.58;4.80;;;;;;;7.57;54.78;100874.41;1789188;79;20929;-69
2022/11/01 08:42:57;;;;;;;8.65;3.60;;;;;;;7.65;54.86;100870.39;1811631;79;21834;-69
2022/11/01 08:45:24;;;;;;;6.35;3.65;;;;;;;7.80;54.92;100875.66;1811625;79;21474;-69
2022/11/01 08:47:58;;;;;;;6.00;3.02;;;;;;;7.93;54.19;100870.91;1811616;79;20989;-69
2022/11/01 08:50:25;;;;;;;7.85;3.80;;;;;;;7.99;53.51;100869.67;1810871;79;21048;-69
2022/11/01 08:52:51;;;;;;;8.38;3.58;;;;;;;8.04;53.52;100862.36;1811719;79;20952;-69
2022/11/01 08:55:17;;;;;;;8.78;3.30;;;;;;;8.09;53.30;100860.27;1811809;79;22140;-69
2022/11/01 08:57:44;;;;;;;8.65;3.50;;;;;;;8.18;53.32;100857.08;1811268;79;20988;-70
2022/11/01 09:00:13;;;;;;;7.45;3.27;;;;;;;8.28;53.03;100850.77;1811469;79;21454;-69
2022/11/01 09:02:39;;;;;;;6.55;3.22;;;;;;;8.36;52.95;100849.86;1811805;79;21420;-70
2022/11/01 09:05:07;;;;;;;6.55;2.87;;;;;;;8.45;52.99;100844.50;1775670;79;21060;-70
2022/11/01 09:07:35;;;;;;;6.67;3.10;;;;;;;8.55;52.45;100837.70;1775645;80;21916;-70
2022/11/01 09:10:03;;;;;;;4.92;2.40;;;;;;;8.65;51.93;100837.49;1775577;80;20968;-69
2022/11/01 09:12:30;;;;;;;6.37;2.85;;;;;;;8.74;50.89;100836.06;1774108;80;20942;-69
2022/11/01 09:14:57;;;;;;;6.20;3.00;;;;;;;8.79;50.83;100841.42;1736672;82;21020;-69
2022/11/01 09:17:23;;;;;;;5.30;2.58;;;;;;;8.85;50.60;100844.95;1773448;81;21032;-70
2022/11/01 09:19:50;;;;;;;4.90;2.87;;;;;;;8.99;51.07;100840.59;1773516;81;21668;-70
2022/11/01 09:22:16;;;;;;;4.05;2.22;;;;;;;9.18;50.60;100847.67;1773302;81;21474;-70
2022/11/01 09:24:44;;;;;;;5.10;2.47;;;;;;;9.33;49.88;100843.99;1773299;80;20985;-69
2022/11/01 09:27:10;;;;;;;4.17;2.42;;;;;;;9.41;49.13;100834.27;1773095;80;20982;-70
2022/11/01 09:29:37;;;;;;;5.45;2.72;;;;;;;9.50;49.12;100825.73;1743187;81;21046;-70
2022/11/01 09:32:08;;;;;;;7.80;3.52;;;;;;;9.64;48.92;100824.30;1773307;81;22450;-70
2022/11/01 09:34:36;;;;;;;7.47;3.50;;;;;;;9.80;48.73;100827.22;1773513;80;20974;-70
2022/11/01 09:37:03;;;;;;;4.83;2.87;;;;;;;9.96;47.53;100823.91;1773369;81;21088;-70
2022/11/01 09:39:32;;;;;;;3.52;2.15;;;;;;;10.01;47.43;100828.37;1773443;80;20952;-70
2022/11/01 09:42:01;;;;;;;5.75;2.52;;;;;;;10.07;46.69;100825.79;1773618;81;20939;-70
2022/11/01 09:44:35;;;;;;;6.60;2.87;;;;;;;10.16;46.82;100833.91;1773399;80;21924;-69
2022/11/01 09:47:21;;;;;;;5.20;3.12;;;;;;;10.29;46.32;100820.23;1742650;81;27423;-70
2022/11/01 09:50:00;;;;;;;6.45;2.77;;;;;;;10.39;45.84;100822.22;1773157;81;21010;-70
2022/11/01 09:52:26;;;;;;;5.08;2.52;;;;;;;10.38;46.21;100822.69;1773609;81;20986;-70
2022/11/01 09:54:55;;;;;;;5.22;2.30;;;;;;;10.52;46.43;100815.12;1773697;80;21480;-69
2022/11/01 09:57:30;;;;;;;5.95;2.45;;;;;;;10.62;46.19;100806.89;1773619;80;22536;-70
2022/11/01 10:00:12;;;;;;;4.53;2.10;;;;;;;10.75;45.89;100814.76;1772764;80;21500;-70
2022/11/01 10:03:15;;;;;;;4.35;2.08;;;;;;;10.85;45.98;100811.80;1762815;80;20962;-70
2022/11/01 10:06:06;;;;;;;6.73;2.07;;;;;;;11.04;45.24;100814.78;1743167;82;20942;-69
2022/11/01 10:09:06;;;;;;;4.35;1.90;;;;;;;11.11;44.30;100812.05;1743027;82;20962;-69
2022/11/01 10:12:03;;;;;;;4.45;1.90;;;;;;;11.19;44.79;100812.77;1742703;81;21835;-69
2022/11/01 10:14:42;;;;;;;3.98;2.00;;;;;;;11.43;45.13;100803.00;1742846;82;20991;-69
2022/11/01 10:17:18;;;;;;;2.77;1.50;;;;;;;11.66;44.42;100800.39;1737132;82;20954;-69
2022/11/01 10:19:48;;;;;;;4.10;2.00;;;;;;;11.76;42.80;100798.71;1744212;81;20990;-69
2022/11/01 10:22:31;;;;;;;3.98;1.82;;;;;;;11.67;43.21;100788.36;1742898;81;21053;-69
2022/11/01 10:25:05;;;;;;;3.65;1.70;;;;;;;11.72;43.47;100783.56;1743364;82;22427;-70
2022/11/01 10:27:56;;;;;;;3.17;1.47;;;;;;;11.87;43.31;100790.84;1742633;81;21442;-70
2022/11/01 10:30:22;;;;;;;3.40;1.60;;;;;;;12.02;42.72;100788.30;1758110;79;20953;-70
2022/11/01 10:33:02;;;;;;;5.42;1.72;;;;;;;12.24;42.37;100787.91;1744947;82;21371;-70
2022/11/01 10:35:35;;;;;;;4.28;1.70;;;;;;;12.46;41.71;100784.41;1713993;83;21443;-70
2022/11/01 10:38:19;;;;;;;3.55;1.85;;;;;;;12.52;40.67;100785.21;1740780;82;21767;-70
2022/11/01 10:40:50;;;;;;;2.92;1.60;;;;;;;12.47;41.29;100788.25;1743333;82;20984;-70
2022/11/01 10:43:19;;;;;;;3.42;1.60;;;;;;;12.50;40.72;100786.66;1743397;82;21003;-70
2022/11/01 10:45:46;;;;;;;3.40;1.55;;;;;;;12.59;40.74;100783.76;1743548;82;21059;-70
2022/11/01 10:48:28;;;;;;;5.42;1.50;;;;;;;12.73;40.93;100791.89;1743386;82;21453;-70
2022/11/01 10:50:54;;;;;;;5.12;1.60;;;;;;;12.82;39.85;100784.03;1745425;82;21819;-72
2022/11/01 10:53:21;;;;;;;3.62;1.52;;;;;;;12.94;39.61;100778.22;1743267;82;20996;-70
2022/11/01 10:55:52;;;;;;;2.37;1.45;;;;;;;13.10;38.99;100779.94;1743359;82;20988;-70
2022/11/01 10:58:46;;;;;;;5.42;1.55;;;;;;;13.22;38.98;100766.19;1743320;82;20941;-70
2022/11/01 11:01:18;;;;;;;4.30;1.90;;;;;;;13.36;39.45;100767.66;1743318;82;21921;-70
2022/11/01 11:03:45;;;;;;;3.08;1.40;;;;;;;13.56;38.59;100769.45;1711220;82;21814;-70
2022/11/01 11:06:14;;;;;;;4.97;1.75;;;;;;;13.71;39.57;100761.52;1705886;84;21393;-70
2022/11/01 11:08:43;;;;;;;4.83;1.80;;;;;;;13.92;38.20;100755.31;1705851;84;21005;-70
2022/11/01 11:11:13;;;;;;;3.77;1.70;;;;;;;14.02;38.25;100764.99;1704597;83;20984;-70
2022/11/01 11:13:48;;;;;;;3.70;1.52;;;;;;;14.02;37.71;100756.19;1692214;83;21000;-70
2022/11/01 11:16:32;;;;;;;3.60;1.87;;;;;;;14.06;37.34;100754.93;1713815;83;21804;-70
2022/11/01 11:19:04;;;;;;;;;;;;;;;14.10;36.75;100752.37;1715235;83;21061;-71
2022/11/01 11:21:33;;;;;;;3.27;1.70;;;;;;;14.15;36.57;100750.62;1713894;83;20161;-70
2022/11/01 11:24:00;;;;;;;2.72;1.57;;;;;;;14.03;37.04;100757.86;1713694;83;20973;-70
2022/11/01 11:26:27;;;;;;;5.87;1.90;;;;;;;14.17;37.52;100756.63;1713749;83;21502;-71
2022/11/01 11:28:55;;;;;;;2.87;1.70;;;;;;;14.39;35.25;100755.59;1689313;82;21840;-70
2022/11/01 11:31:27;;;;;;;3.35;1.45;;;;;;;14.31;35.77;100749.63;1745469;81;20957;-70
2022/11/01 11:34:01;;;;;;;4.10;1.80;;;;;;;14.37;35.29;100752.20;1751660;82;21048;-70
2022/11/01 11:36:34;;;;;;;2.40;1.57;;;;;;;14.38;35.12;100748.11;1751391;82;21013;-70
2022/11/01 11:39:01;;;;;;;3.10;1.90;;;;;;;14.50;35.32;100744.87;1750530;82;21456;-70
2022/11/01 11:41:32;;;;;;;3.25;1.72;;;;;;;14.76;35.00;100742.00;1751749;82;21737;-70
2022/11/01 11:43:59;;;;;;;3.30;1.70;;;;;;;15.01;35.43;100747.74;1751630;82;21002;-70
2022/11/01 11:46:25;;;;;;;2.17;1.30;;;;;;;15.22;34.84;100743.09;1743704;82;20996;-70
2022/11/01 11:49:03;;;;;;;3.17;1.37;;;;;;;15.33;33.33;100739.42;1743243;82;20964;-70
2022/11/01 11:51:31;;;;;;;2.85;1.20;;;;;;;15.50;32.25;100741.84;1743211;82;20956;-71
2022/11/01 11:54:21;;;;;;;2.52;1.20;;;;;;;15.53;31.60;100734.39;1743583;82;21808;-70
2022/11/01 11:56:54;;;;;;;3.25;1.32;;;;;;;15.54;32.42;100736.56;1743245;82;20953;-70
2022/11/01 11:59:28;;;;;;;2.25;0.90;;;;;;;15.80;32.94;100737.63;1741893;82;21005;-70
2022/11/01 12:02:00;;;;;;;4.55;1.57;;;;;;;16.00;31.68;100737.88;1742632;82;21040;-70
2022/11/01 12:04:31;;;;;;;3.47;1.57;;;;;;;16.10;31.84;100733.00;1737597;82;21052;-69
2022/11/01 12:06:57;;;;;;;2.60;1.27;;;;;;;16.13;31.40;100735.38;1737334;82;22611;-69
2022/11/01 12:09:45;;;;;;;2.27;1.30;;;;;;;16.30;31.92;100737.22;1737112;82;21028;-70
2022/11/01 12:12:33;;;;;;;2.30;1.30;;;;;;;16.46;30.22;100740.57;1738015;81;21356;-70
2022/11/01 12:15:02;;;;;;;2.35;1.30;;;;;;;16.45;30.62;100745.06;1737239;82;20953;-69
2022/11/01 12:17:35;;;;;;;3.45;1.17;;;;;;;16.66;31.22;100751.44;1737213;82;20865;-70
2022/11/01 12:20:20;;;;;;;2.83;1.32;;;;;;;16.74;30.33;100748.89;1741878;82;20975;-70